^^
Saratoga-Weather Station Historical Data
Daily Summary for March 25, 2020 Units:  Metric    English   Both
Daily Weekly Monthly Yearly Custom
  High: Low: Average:
Temperature: 10.9 °C -0.2 °C 5.5 °C
Dew Point: -6.2 °C -10.1 °C -8.1 °C
Humidity: 59% 22% 38%
Wind Speed: 19.5km/h km/h 5.5km/h
Wind Gust: 32.2km/h - -
Wind- - East
Pressure: 1026.8 hPa 1019.0 hPa -
Precipitation: 0.0 mm    
Historical Graphs
 
 
Tabular Data for March 25, 2020
Time Temperature Dew Point Pressure Wind Wind Speed Wind Gust Humidity Rainfall Rate (Hourly) solar
00:01 3.1 °C -6.9 °C 1026.8 hPa Calm   4.8 km/h 48% 0.0 mm 0 W/m2
00:06 2.8 °C -6.6 °C 1026.8 hPa Calm     50% 0.0 mm 0 W/m2
00:11 2.5 °C -6.4 °C 1026.8 hPa Calm   4.8 km/h 52% 0.0 mm 0 W/m2
00:16 2.3 °C -6.5 °C 1026.8 hPa Calm     52% 0.0 mm 0 W/m2
00:21 2 °C -6.3 °C 1026.8 hPa Calm     54% 0.0 mm 0 W/m2
00:27 1.8 °C -6.3 °C 1026.8 hPa Calm     55% 0.0 mm 0 W/m2
00:32 1.6 °C -6.2 °C 1026.4 hPa Calm     56% 0.0 mm 0 W/m2
00:37 1.3 °C -6.5 °C 1026.4 hPa Calm     56% 0.0 mm 0 W/m2
00:42 1.3 °C -6.8 °C 1026.8 hPa Calm     55% 0.0 mm 0 W/m2
00:47 1.3 °C -6.5 °C 1026.4 hPa SE 1.4 km/h 4.8 km/h 56% 0.0 mm 0 W/m2
00:52 1.3 °C -6.8 °C 1026.4 hPa Calm   3.2 km/h 55% 0.0 mm 0 W/m2
00:57 1.3 °C -7.2 °C 1026.4 hPa ESE 1.4 km/h 3.2 km/h 53% 0.0 mm 0 W/m2
01:02 1.3 °C -7.2 °C 1026.4 hPa East 1.4 km/h 4.8 km/h 53% 0.0 mm 0 W/m2
01:07 1.6 °C -7.5 °C 1026.4 hPa ENE 1.4 km/h 3.2 km/h 51% 0.0 mm 0 W/m2
01:12 1.8 °C -7.5 °C 1026.4 hPa ENE 1.4 km/h 3.2 km/h 50% 0.0 mm 0 W/m2
01:17 2.1 °C -7.8 °C 1026.4 hPa Calm   3.2 km/h 48% 0.0 mm 0 W/m2
01:22 2.2 °C -7.7 °C 1026.4 hPa SE 1.4 km/h 1.6 km/h 48% 0.0 mm 0 W/m2
01:27 2.2 °C -8 °C 1026.4 hPa ESE 4.7 km/h 4.8 km/h 47% 0.0 mm 0 W/m2
01:32 2.3 °C -8.1 °C 1026.1 hPa ESE 1.4 km/h 4.8 km/h 46% 0.0 mm 0 W/m2
01:37 2.3 °C -8.4 °C 1026.1 hPa ESE 1.4 km/h 3.2 km/h 45% 0.0 mm 0 W/m2
01:42 2.3 °C -7.9 °C 1026.1 hPa Calm   4.8 km/h 47% 0.0 mm 0 W/m2
01:47 2.2 °C -7.7 °C 1026.1 hPa SE 3.2 km/h 6.4 km/h 48% 0.0 mm 0 W/m2
01:52 2.2 °C -8.2 °C 1026.1 hPa East 3.2 km/h 4.8 km/h 46% 0.0 mm 0 W/m2
01:57 2.2 °C -8 °C 1026.1 hPa East 1.4 km/h 4.8 km/h 47% 0.0 mm 0 W/m2
02:02 2.2 °C -8.2 °C 1025.7 hPa Calm   3.2 km/h 46% 0.0 mm 0 W/m2
02:07 2.3 °C -8.7 °C 1026.1 hPa ESE 6.4 km/h 8 km/h 44% 0.0 mm 0 W/m2
02:13 2.3 °C -7.6 °C 1025.7 hPa Calm   3.2 km/h 48% 0.0 mm 0 W/m2
02:18 2.2 °C -8.8 °C 1025.7 hPa SE 3.2 km/h 9.7 km/h 44% 0.0 mm 0 W/m2
02:23 2.2 °C -8.5 °C 1025.7 hPa ENE 3.2 km/h 6.4 km/h 45% 0.0 mm 0 W/m2
02:28 2.2 °C -8.5 °C 1025.7 hPa ESE 3.2 km/h 4.8 km/h 45% 0.0 mm 0 W/m2
02:33 2.1 °C -8.9 °C 1025.7 hPa East 1.4 km/h 8 km/h 44% 0.0 mm 0 W/m2
02:38 2.3 °C -9 °C 1025.7 hPa East 3.2 km/h 8 km/h 43% 0.0 mm 0 W/m2
02:43 2.4 °C -8.9 °C 1025.4 hPa Calm   6.4 km/h 43% 0.0 mm 0 W/m2
02:48 2.4 °C -9.2 °C 1025.7 hPa SSE 3.2 km/h 4.8 km/h 42% 0.0 mm 0 W/m2
02:53 2.4 °C -8.6 °C 1025.7 hPa ESE 1.4 km/h 3.2 km/h 44% 0.0 mm 0 W/m2
02:58 2.3 °C -9 °C 1025.7 hPa Calm   3.2 km/h 43% 0.0 mm 0 W/m2
03:03 2.3 °C -8.7 °C 1025.7 hPa Calm   4.8 km/h 44% 0.0 mm 0 W/m2
03:08 2.4 °C -9.2 °C 1025.7 hPa Calm   3.2 km/h 42% 0.0 mm 0 W/m2
03:13 2.4 °C -9.2 °C 1025.7 hPa Calm   3.2 km/h 42% 0.0 mm 0 W/m2
03:18 2.3 °C -8.7 °C 1025.7 hPa WNW 3.2 km/h 4.8 km/h 44% 0.0 mm 0 W/m2
03:23 2.1 °C -8.3 °C 1025.7 hPa WNW 1.4 km/h 3.2 km/h 46% 0.0 mm 0 W/m2
03:28 1.6 °C -8.2 °C 1025.4 hPa Calm   1.6 km/h 48% 0.0 mm 0 W/m2
03:33 1.3 °C -7.7 °C 1025.4 hPa West 1.4 km/h 1.6 km/h 51% 0.0 mm 0 W/m2
03:38 1 °C -7.5 °C 1025.4 hPa Calm   1.6 km/h 53% 0.0 mm 0 W/m2
03:48 0.4 °C -7.8 °C 1025.4 hPa Calm     54% 0.0 mm 0 W/m2
03:53 0.4 °C -8.1 °C 1025.4 hPa Calm     53% 0.0 mm 0 W/m2
03:58 0.3 °C -7.9 °C 1025.4 hPa Calm     54% 0.0 mm 0 W/m2
04:03 0.4 °C -8.8 °C 1025.4 hPa Calm     50% 0.0 mm 0 W/m2
04:08 0.6 °C -8.4 °C 1025.4 hPa West 3.2 km/h 3.2 km/h 51% 0.0 mm 0 W/m2
04:28 1.2 °C -8.3 °C 1025.1 hPa ESE 1.4 km/h 6.4 km/h 49% 0.0 mm 0 W/m2
04:33 1.2 °C -8.6 °C 1025.1 hPa ESE 3.2 km/h 3.2 km/h 48% 0.0 mm 0 W/m2
04:49 1.1 °C -8.4 °C 1025.4 hPa Calm   3.2 km/h 49% 0.0 mm 0 W/m2
04:54 1.2 °C -8.1 °C 1025.4 hPa Calm   4.8 km/h 50% 0.0 mm 0 W/m2
04:59 1.1 °C -7.9 °C 1025.4 hPa ESE 6.4 km/h 9.7 km/h 51% 0.0 mm 0 W/m2
05:04 1.1 °C -8.4 °C 1025.4 hPa ESE 1.4 km/h 6.4 km/h 49% 0.0 mm 0 W/m2
05:09 1.2 °C -8.3 °C 1025.4 hPa ESE 3.2 km/h 4.8 km/h 49% 0.0 mm 0 W/m2
05:14 1.3 °C -8.2 °C 1025.1 hPa Calm   6.4 km/h 49% 0.0 mm 0 W/m2
05:19 1.3 °C -8.2 °C 1025.1 hPa SE 3.2 km/h 8 km/h 49% 0.0 mm 0 W/m2
05:24 1.2 °C -8.3 °C 1025.1 hPa ESE 3.2 km/h 6.4 km/h 49% 0.0 mm 0 W/m2
05:29 1.2 °C -8.3 °C 1025.1 hPa ESE 6.4 km/h 11.3 km/h 49% 0.0 mm 0 W/m2
05:34 1.3 °C -8.2 °C 1025.1 hPa SE 3.2 km/h 6.4 km/h 49% 0.0 mm 0 W/m2
05:39 1.2 °C -8.1 °C 1025.1 hPa ESE 1.4 km/h 3.2 km/h 50% 0.0 mm 0 W/m2
05:44 1.2 °C -8.1 °C 1025.1 hPa East 1.4 km/h 11.3 km/h 50% 0.0 mm 0 W/m2
05:50 1.1 °C -8.4 °C 1025.1 hPa ESE 3.2 km/h 3.2 km/h 49% 0.0 mm 0 W/m2
05:55 1.2 °C -8.3 °C 1025.1 hPa ESE 3.2 km/h 6.4 km/h 49% 0.0 mm 0 W/m2
06:00 1.2 °C -8.3 °C 1025.1 hPa ESE 3.2 km/h 4.8 km/h 49% 0.0 mm 0 W/m2
06:05 1.1 °C -8.4 °C 1025.1 hPa ESE 3.2 km/h 6.4 km/h 49% 0.0 mm 0 W/m2
06:10 1.2 °C -8.1 °C 1025.1 hPa SE 3.2 km/h 9.7 km/h 50% 0.0 mm 0 W/m2
06:15 1.1 °C -8.2 °C 1025.1 hPa East 3.2 km/h 3.2 km/h 50% 0.0 mm 0 W/m2
06:20 1.1 °C -8.4 °C 1025.1 hPa SE 1.4 km/h 11.3 km/h 49% 0.0 mm 0 W/m2
06:25 1 °C -8.3 °C 1025.1 hPa ESE 3.2 km/h 6.4 km/h 50% 0.0 mm 0 W/m2
06:30 0.9 °C -8.1 °C 1025.1 hPa Calm   11.3 km/h 51% 0.0 mm 5 W/m2
06:35 0.8 °C -7.7 °C 1025.1 hPa ENE 1.4 km/h 3.2 km/h 53% 0.0 mm 9 W/m2
06:40 0.6 °C -8.1 °C 1025.1 hPa Calm   6.4 km/h 52% 0.0 mm 11 W/m2
06:45 0.6 °C -7.4 °C 1025.1 hPa Calm     55% 0.0 mm 14 W/m2
06:50 0.4 °C -7.6 °C 1025.4 hPa Calm     55% 0.0 mm 16 W/m2
06:55 0.2 °C -7.5 °C 1025.4 hPa Calm   1.6 km/h 56% 0.0 mm 18 W/m2
07:00 0 °C -7.7 °C 1025.4 hPa Calm     56% 0.0 mm 19 W/m2
07:05 -0.1 °C -7.6 °C 1025.4 hPa Calm     57% 0.0 mm 21 W/m2
07:10 -0.1 °C -7.6 °C 1025.4 hPa Calm     57% 0.0 mm 25 W/m2
07:16 -0.2 °C -7.2 °C 1025.4 hPa Calm     59% 0.0 mm 26 W/m2
07:21 -0.2 °C -7.7 °C 1025.4 hPa Calm   3.2 km/h 57% 0.0 mm 28 W/m2
07:26 0.1 °C -7.9 °C 1025.4 hPa ESE 3.2 km/h 3.2 km/h 55% 0.0 mm 30 W/m2
07:31 0.6 °C -7.6 °C 1025.4 hPa ESE 4.7 km/h 6.4 km/h 54% 0.0 mm 30 W/m2
07:36 1.1 °C -7.7 °C 1025.4 hPa East 1.4 km/h 4.8 km/h 52% 0.0 mm 114 W/m2
07:41 1.3 °C -7.7 °C 1025.4 hPa East 9.7 km/h 9.7 km/h 51% 0.0 mm 148 W/m2
07:46 1.6 °C -7.7 °C 1025.4 hPa ESE 4.7 km/h 12.9 km/h 50% 0.0 mm 162 W/m2
07:51 1.7 °C -7.9 °C 1025.4 hPa ENE 4.7 km/h 9.7 km/h 49% 0.0 mm 176 W/m2
07:56 1.9 °C -7.7 °C 1025.4 hPa NE 4.7 km/h 14.5 km/h 49% 0.0 mm 183 W/m2
08:01 2 °C -7.9 °C 1025.4 hPa ESE 3.2 km/h 11.3 km/h 48% 0.0 mm 199 W/m2
08:06 2.1 °C -7.8 °C 1025.4 hPa East 4.7 km/h 11.3 km/h 48% 0.0 mm 214 W/m2
08:11 2.2 °C -7.7 °C 1025.4 hPa NE 4.7 km/h 4.8 km/h 48% 0.0 mm 225 W/m2
08:16 2.3 °C -7.9 °C 1025.4 hPa East 1.4 km/h 11.3 km/h 47% 0.0 mm 239 W/m2
08:21 2.4 °C -7.8 °C 1025.4 hPa ENE 3.2 km/h 9.7 km/h 47% 0.0 mm 102 W/m2
08:26 2.6 °C -7.6 °C 1025.1 hPa ESE 4.7 km/h 9.7 km/h 47% 0.0 mm 42 W/m2
08:31 2.7 °C -7.5 °C 1025.1 hPa North 4.7 km/h 11.3 km/h 47% 0.0 mm 236 W/m2
08:37 2.8 °C -7.4 °C 1025.1 hPa East 4.7 km/h 8 km/h 47% 0.0 mm 288 W/m2
08:42 2.9 °C -7.6 °C 1025.1 hPa NE 4.7 km/h 12.9 km/h 46% 0.0 mm 304 W/m2
08:47 3.2 °C -7 °C 1025.1 hPa East 6.4 km/h 16.1 km/h 47% 0.0 mm 316 W/m2
08:52 3.4 °C -7.1 °C 1025.1 hPa ENE 7.9 km/h 9.7 km/h 46% 0.0 mm 329 W/m2
08:57 3.6 °C -7.2 °C 1025.1 hPa East 3.2 km/h 16.1 km/h 45% 0.0 mm 341 W/m2
09:02 3.8 °C -6.8 °C 1025.1 hPa ENE 7.9 km/h 9.7 km/h 46% 0.0 mm 352 W/m2
09:07 3.8 °C -7 °C 1025.1 hPa ENE 3.2 km/h 11.3 km/h 45% 0.0 mm 364 W/m2
09:12 3.8 °C -7 °C 1025.1 hPa East 7.9 km/h 12.9 km/h 45% 0.0 mm 378 W/m2
09:17 3.8 °C -6.8 °C 1025.1 hPa SE 4.7 km/h 12.9 km/h 46% 0.0 mm 388 W/m2
09:22 4 °C -6.6 °C 1024.7 hPa ESE 13 km/h 12.9 km/h 46% 0.0 mm 401 W/m2
09:27 4.2 °C -6.4 °C 1024.7 hPa East 6.4 km/h 11.3 km/h 46% 0.0 mm 413 W/m2
09:32 4.4 °C -6.2 °C 1024.7 hPa NE 6.4 km/h 11.3 km/h 46% 0.0 mm 424 W/m2
09:37 4.6 °C -6.3 °C 1024.7 hPa East 4.7 km/h 17.7 km/h 45% 0.0 mm 438 W/m2
09:42 5 °C -6.2 °C 1024.4 hPa ENE 7.9 km/h 14.5 km/h 44% 0.0 mm 446 W/m2
09:47 5.2 °C -6.4 °C 1024.4 hPa ENE 7.9 km/h 17.7 km/h 43% 0.0 mm 454 W/m2
09:52 5.3 °C -6.3 °C 1024.4 hPa ENE 9.7 km/h 19.3 km/h 43% 0.0 mm 469 W/m2
09:57 5.2 °C -6.7 °C 1024.0 hPa ENE 13 km/h 12.9 km/h 42% 0.0 mm 478 W/m2
10:02 5.4 °C -6.8 °C 1024.0 hPa East 3.2 km/h 20.9 km/h 41% 0.0 mm 487 W/m2
10:07 5.7 °C -6.9 °C 1024.0 hPa East 9.7 km/h 14.5 km/h 40% 0.0 mm 496 W/m2
10:12 6.1 °C -6.2 °C 1024.0 hPa East 9.7 km/h 19.3 km/h 41% 0.0 mm 504 W/m2
10:17 6.2 °C -6.7 °C 1024.0 hPa East 6.4 km/h 9.7 km/h 39% 0.0 mm 508 W/m2
10:22 6.2 °C -6.7 °C 1024.0 hPa NE 7.9 km/h 14.5 km/h 39% 0.0 mm 520 W/m2
10:27 6.4 °C -6.6 °C 1024.0 hPa ENE 6.4 km/h 14.5 km/h 39% 0.0 mm 533 W/m2
10:32 6.7 °C -7 °C 1024.0 hPa NE 7.9 km/h 16.1 km/h 37% 0.0 mm 536 W/m2
10:37 6.7 °C -7 °C 1023.7 hPa ENE 6.4 km/h 16.1 km/h 37% 0.0 mm 547 W/m2
10:42 6.8 °C -7.2 °C 1023.7 hPa East 11.1 km/h 16.1 km/h 36% 0.0 mm 561 W/m2
10:47 7 °C -7.1 °C 1023.7 hPa East 11.1 km/h 17.7 km/h 36% 0.0 mm 566 W/m2
10:52 7 °C -7.1 °C 1023.7 hPa East 11.1 km/h 14.5 km/h 36% 0.0 mm 575 W/m2
10:57 7.1 °C -7.3 °C 1023.4 hPa East 6.4 km/h 9.7 km/h 35% 0.0 mm 580 W/m2
11:02 7.1 °C -7.7 °C 1023.7 hPa ENE 7.9 km/h 19.3 km/h 34% 0.0 mm 585 W/m2
11:08 7.2 °C -7.6 °C 1023.4 hPa ESE 6.4 km/h 12.9 km/h 34% 0.0 mm 591 W/m2
11:13 7.3 °C -7.9 °C 1023.4 hPa ESE 11.1 km/h 16.1 km/h 33% 0.0 mm 598 W/m2
11:18 7.4 °C -7.8 °C 1023.4 hPa ESE 11.1 km/h 14.5 km/h 33% 0.0 mm 603 W/m2
11:23 7.6 °C -7.7 °C 1023.4 hPa ESE 4.7 km/h 16.1 km/h 33% 0.0 mm 612 W/m2
11:28 7.7 °C -7.6 °C 1023.4 hPa ESE 11.1 km/h 12.9 km/h 33% 0.0 mm 617 W/m2
11:33 7.7 °C -7.6 °C 1023.4 hPa East 6.4 km/h 11.3 km/h 33% 0.0 mm 619 W/m2
11:38 8 °C -6.9 °C 1023.0 hPa NNE 4.7 km/h 14.5 km/h 34% 0.0 mm 622 W/m2
11:43 7.8 °C -7.9 °C 1023.0 hPa NE 14.3 km/h 16.1 km/h 32% 0.0 mm 626 W/m2
11:48 8.1 °C -8 °C 1023.0 hPa ESE 9.7 km/h 16.1 km/h 31% 0.0 mm 631 W/m2
11:53 8.2 °C -7.5 °C 1023.0 hPa ENE 6.4 km/h 20.9 km/h 32% 0.0 mm 631 W/m2
11:58 8.3 °C -6.7 °C 1022.7 hPa East 9.7 km/h 11.3 km/h 34% 0.0 mm 633 W/m2
12:03 8.4 °C -7.4 °C 1022.7 hPa SE 6.4 km/h 11.3 km/h 32% 0.0 mm 636 W/m2
12:08 8.3 °C -7.4 °C 1022.7 hPa East 11.1 km/h 11.3 km/h 32% 0.0 mm 636 W/m2
12:13 8.3 °C -7.9 °C 1022.7 hPa ENE 7.9 km/h 20.9 km/h 31% 0.0 mm 638 W/m2
12:18 8.3 °C -7.9 °C 1022.7 hPa ENE 7.9 km/h 12.9 km/h 31% 0.0 mm 642 W/m2
12:24 8.5 °C -7.7 °C 1022.4 hPa ESE 6.4 km/h 17.7 km/h 31% 0.0 mm 643 W/m2
12:29 8.7 °C -7.1 °C 1022.4 hPa ENE 4.7 km/h 11.3 km/h 32% 0.0 mm 643 W/m2
12:34 8.7 °C -7.5 °C 1022.4 hPa ESE 6.4 km/h 22.5 km/h 31% 0.0 mm 642 W/m2
12:39 8.7 °C -8.4 °C 1022.4 hPa NE 3.2 km/h 17.7 km/h 29% 0.0 mm 643 W/m2
12:44 8.8 °C -7.8 °C 1022.4 hPa East 6.4 km/h 22.5 km/h 30% 0.0 mm 640 W/m2
12:49 8.9 °C -8.2 °C 1022.4 hPa NE 4.7 km/h 30.6 km/h 29% 0.0 mm 645 W/m2
12:54 9.1 °C -8 °C 1022.0 hPa ESE 14.3 km/h 16.1 km/h 29% 0.0 mm 638 W/m2
12:59 9.2 °C -7.9 °C 1022.0 hPa ESE 4.7 km/h 27.4 km/h 29% 0.0 mm 643 W/m2
13:04 9.3 °C -7.4 °C 1022.0 hPa NE 6.4 km/h 14.5 km/h 30% 0.0 mm 640 W/m2
13:09 9.3 °C -8.3 °C 1021.7 hPa NE 3.2 km/h 16.1 km/h 28% 0.0 mm 640 W/m2
13:14 9.3 °C -7.8 °C 1021.7 hPa ENE 11.1 km/h 11.3 km/h 29% 0.0 mm 638 W/m2
13:19 9.6 °C -8 °C 1021.7 hPa ESE 14.3 km/h 17.7 km/h 28% 0.0 mm 636 W/m2
13:24 9.8 °C -7.4 °C 1021.3 hPa East 13 km/h 17.7 km/h 29% 0.0 mm 631 W/m2
13:29 9.8 °C -7.9 °C 1021.3 hPa ENE 1.4 km/h 12.9 km/h 28% 0.0 mm 631 W/m2
13:34 9.8 °C -8.8 °C 1021.3 hPa East 9.7 km/h 27.4 km/h 26% 0.0 mm 629 W/m2
13:39 9.9 °C -8.7 °C 1021.3 hPa SE 3.2 km/h 16.1 km/h 26% 0.0 mm 624 W/m2
13:44 10.2 °C -8.5 °C 1021.0 hPa ESE 11.1 km/h 27.4 km/h 26% 0.0 mm 624 W/m2
13:49 10.2 °C -8.5 °C 1021.0 hPa East 7.9 km/h 11.3 km/h 26% 0.0 mm 608 W/m2
13:54 10.2 °C -9.5 °C 1021.0 hPa East 4.7 km/h 19.3 km/h 24% 0.0 mm 608 W/m2
13:59 10.3 °C -9.4 °C 1020.7 hPa East 19.5 km/h 20.9 km/h 24% 0.0 mm 605 W/m2
14:04 10.3 °C -9.4 °C 1020.7 hPa NE 7.9 km/h 25.7 km/h 24% 0.0 mm 599 W/m2
14:09 10.4 °C -9.3 °C 1020.7 hPa ESE 4.7 km/h 12.9 km/h 24% 0.0 mm 594 W/m2
14:14 10.7 °C -8.5 °C 1020.7 hPa ENE 6.4 km/h 16.1 km/h 25% 0.0 mm 589 W/m2
14:19 10.8 °C -9.5 °C 1020.7 hPa ESE 11.1 km/h 24.1 km/h 23% 0.0 mm 584 W/m2
14:24 10.7 °C -9.1 °C 1020.7 hPa ENE 17.7 km/h 19.3 km/h 24% 0.0 mm 575 W/m2
14:29 10.7 °C -8.5 °C 1020.7 hPa East 17.7 km/h 22.5 km/h 25% 0.0 mm 570 W/m2
14:34 10.8 °C -9.5 °C 1020.7 hPa ENE 6.4 km/h 17.7 km/h 23% 0.0 mm 563 W/m2
14:39 10.8 °C -10.1 °C 1020.7 hPa ESE 7.9 km/h 19.3 km/h 22% 0.0 mm 555 W/m2
14:44 10.7 °C -9.1 °C 1020.7 hPa NE 9.7 km/h 16.1 km/h 24% 0.0 mm 541 W/m2
14:49 10.8 °C -8.5 °C 1020.7 hPa SE 3.2 km/h 17.7 km/h 25% 0.0 mm 531 W/m2
14:54 10.9 °C -8.9 °C 1020.7 hPa East 13 km/h 17.7 km/h 24% 0.0 mm 524 W/m2
14:59 10.7 °C -8 °C 1020.3 hPa ENE 7.9 km/h 12.9 km/h 26% 0.0 mm 517 W/m2
15:04 10.7 °C -8 °C 1020.3 hPa East 17.7 km/h 25.7 km/h 26% 0.0 mm 504 W/m2
15:09 10.6 °C -8.1 °C 1020.3 hPa NE 16.3 km/h 19.3 km/h 26% 0.0 mm 494 W/m2
15:14 10.4 °C -8.3 °C 1020.3 hPa ENE 9.7 km/h 25.7 km/h 26% 0.0 mm 492 W/m2
15:19 10.5 °C -7.7 °C 1020.3 hPa East 7.9 km/h 11.3 km/h 27% 0.0 mm 480 W/m2
15:24 10.4 °C -7.8 °C 1020.0 hPa ESE 11.1 km/h 24.1 km/h 27% 0.0 mm 468 W/m2
15:29 10.3 °C -7.9 °C 1020.0 hPa SE 13 km/h 17.7 km/h 27% 0.0 mm 454 W/m2
15:34 10.3 °C -7.4 °C 1020.0 hPa NNE 6.4 km/h 24.1 km/h 28% 0.0 mm 446 W/m2
15:39 10.3 °C -8.4 °C 1020.0 hPa East 16.3 km/h 30.6 km/h 26% 0.0 mm 436 W/m2
15:44 10.3 °C -8.4 °C 1020.0 hPa East 9.7 km/h 14.5 km/h 26% 0.0 mm 424 W/m2
15:49 10.3 °C -8.4 °C 1020.0 hPa ENE 7.9 km/h 30.6 km/h 26% 0.0 mm 415 W/m2
15:54 10.4 °C -8.3 °C 1019.6 hPa NE 7.9 km/h 16.1 km/h 26% 0.0 mm 403 W/m2
15:59 10.4 °C -8.3 °C 1019.6 hPa NE 19.5 km/h 24.1 km/h 26% 0.0 mm 394 W/m2
16:04 10.3 °C -8.4 °C 1019.6 hPa NE 16.3 km/h 25.7 km/h 26% 0.0 mm 381 W/m2
16:09 10.4 °C -8.3 °C 1019.6 hPa SE 11.1 km/h 14.5 km/h 26% 0.0 mm 369 W/m2
16:14 10.3 °C -9.4 °C 1019.6 hPa ENE 19.5 km/h 25.7 km/h 24% 0.0 mm 360 W/m2
16:19 10.3 °C -8.9 °C 1019.6 hPa East 3.2 km/h 12.9 km/h 25% 0.0 mm 346 W/m2
16:24 10.3 °C -8.4 °C 1019.6 hPa ESE 11.1 km/h 17.7 km/h 26% 0.0 mm 334 W/m2
16:29 10.2 °C -9 °C 1019.3 hPa ESE 11.1 km/h 20.9 km/h 25% 0.0 mm 320 W/m2
16:34 10.1 °C -8.6 °C 1019.6 hPa NW 3.2 km/h 12.9 km/h 26% 0.0 mm 308 W/m2
16:39 10.2 °C -8.5 °C 1019.3 hPa ENE 13 km/h 12.9 km/h 26% 0.0 mm 292 W/m2
16:44 10.2 °C -8.5 °C 1019.3 hPa East 9.7 km/h 19.3 km/h 26% 0.0 mm 283 W/m2
16:49 10.1 °C -8.6 °C 1019.3 hPa NE 9.7 km/h 20.9 km/h 26% 0.0 mm 272 W/m2
16:54 10 °C -8.6 °C 1019.3 hPa ENE 6.4 km/h 17.7 km/h 26% 0.0 mm 244 W/m2
16:59 10 °C -8.6 °C 1019.3 hPa ENE 6.4 km/h 25.7 km/h 26% 0.0 mm 225 W/m2
17:04 9.8 °C -9.3 °C 1019.3 hPa NE 9.7 km/h 29 km/h 25% 0.0 mm 137 W/m2
17:09 9.7 °C -8.9 °C 1019.3 hPa NNE 7.9 km/h 19.3 km/h 26% 0.0 mm 74 W/m2
17:14 9.7 °C -9.4 °C 1019.0 hPa NE 6.4 km/h 29 km/h 25% 0.0 mm 202 W/m2
17:19 9.7 °C -9.4 °C 1019.0 hPa East 13 km/h 22.5 km/h 25% 0.0 mm 188 W/m2
17:24 9.7 °C -8.9 °C 1019.0 hPa ENE 17.7 km/h 17.7 km/h 26% 0.0 mm 171 W/m2
17:29 9.7 °C -8.9 °C 1019.0 hPa NNE 3.2 km/h 22.5 km/h 26% 0.0 mm 155 W/m2
17:34 9.7 °C -9.4 °C 1019.0 hPa NNW 7.9 km/h 12.9 km/h 25% 0.0 mm 141 W/m2
17:39 9.6 °C -9 °C 1019.0 hPa East 11.1 km/h 22.5 km/h 26% 0.0 mm 121 W/m2
17:44 9.5 °C -9.1 °C 1019.0 hPa ENE 11.1 km/h 12.9 km/h 26% 0.0 mm 109 W/m2
17:49 9.5 °C -9.1 °C 1019.0 hPa East 6.4 km/h 20.9 km/h 26% 0.0 mm 98 W/m2
17:54 9.5 °C -8.6 °C 1019.0 hPa East 11.1 km/h 14.5 km/h 27% 0.0 mm 84 W/m2
17:59 9.3 °C -8.8 °C 1019.0 hPa NNE 16.3 km/h 27.4 km/h 27% 0.0 mm 74 W/m2
18:04 9.2 °C -8.8 °C 1019.3 hPa East 11.1 km/h 19.3 km/h 27% 0.0 mm 49 W/m2
18:09 9 °C -9 °C 1019.0 hPa ENE 6.4 km/h 27.4 km/h 27% 0.0 mm 28 W/m2
18:14 8.8 °C -8.7 °C 1019.3 hPa ENE 14.3 km/h 17.7 km/h 28% 0.0 mm 25 W/m2
18:19 8.7 °C -8.8 °C 1019.0 hPa East 6.4 km/h 11.3 km/h 28% 0.0 mm 23 W/m2
18:24 8.6 °C -8.9 °C 1019.0 hPa East 3.2 km/h 9.7 km/h 28% 0.0 mm 19 W/m2
18:29 8.5 °C -8.5 °C 1019.0 hPa NE 9.7 km/h 9.7 km/h 29% 0.0 mm 18 W/m2
18:34 8.4 °C -8.2 °C 1019.0 hPa ENE 4.7 km/h 8 km/h 30% 0.0 mm 16 W/m2
18:39 8.3 °C -8.7 °C 1019.0 hPa ESE 4.7 km/h 8 km/h 29% 0.0 mm 14 W/m2
18:44 8.1 °C -8.9 °C 1019.0 hPa ESE 6.4 km/h 9.7 km/h 29% 0.0 mm 11 W/m2
18:49 8 °C -9 °C 1019.3 hPa ESE 3.2 km/h 17.7 km/h 29% 0.0 mm 9 W/m2
18:54 7.9 °C -9.1 °C 1019.3 hPa ESE 9.7 km/h 11.3 km/h 29% 0.0 mm 5 W/m2
18:59 7.8 °C -9.1 °C 1019.3 hPa ESE 14.3 km/h 20.9 km/h 29% 0.0 mm 0 W/m2
19:04 7.8 °C -9.6 °C 1019.3 hPa SE 3.2 km/h 8 km/h 28% 0.0 mm 0 W/m2
19:09 7.7 °C -10.1 °C 1019.3 hPa East 6.4 km/h 27.4 km/h 27% 0.0 mm 0 W/m2
19:14 7.7 °C -9.7 °C 1019.6 hPa ESE 13 km/h 12.9 km/h 28% 0.0 mm 0 W/m2
19:19 7.6 °C -9.8 °C 1019.6 hPa ESE 4.7 km/h 27.4 km/h 28% 0.0 mm 0 W/m2
19:24 7.5 °C -9.8 °C 1019.6 hPa East 13 km/h 17.7 km/h 28% 0.0 mm 0 W/m2
19:29 7.5 °C -9.8 °C 1019.6 hPa NE 7.9 km/h 22.5 km/h 28% 0.0 mm 0 W/m2
19:34 7.4 °C -9.9 °C 1019.6 hPa East 9.7 km/h 32.2 km/h 28% 0.0 mm 0 W/m2
19:39 7.4 °C -9.5 °C 1019.6 hPa East 4.7 km/h 11.3 km/h 29% 0.0 mm 0 W/m2
19:44 7.2 °C -9.2 °C 1019.6 hPa ESE 6.4 km/h 32.2 km/h 30% 0.0 mm 0 W/m2
19:49 7.1 °C -8.9 °C 1019.6 hPa ESE 4.7 km/h 6.4 km/h 31% 0.0 mm 0 W/m2
19:54 6.9 °C -9.1 °C 1019.6 hPa ESE 4.7 km/h 12.9 km/h 31% 0.0 mm 0 W/m2
19:59 6.8 °C -9.2 °C 1019.6 hPa ESE 4.7 km/h 16.1 km/h 31% 0.0 mm 0 W/m2
20:04 6.8 °C -9.2 °C 1019.6 hPa East 1.4 km/h 6.4 km/h 31% 0.0 mm 0 W/m2
20:09 6.7 °C -8.5 °C 1019.6 hPa SE 3.2 km/h 16.1 km/h 33% 0.0 mm 0 W/m2
20:14 6.4 °C -8.7 °C 1019.6 hPa East 4.7 km/h 4.8 km/h 33% 0.0 mm 0 W/m2
20:19 6.3 °C -8.8 °C 1019.6 hPa South 1.4 km/h 6.4 km/h 33% 0.0 mm 0 W/m2
20:24 6.2 °C -8.9 °C 1019.6 hPa ENE 13 km/h 12.9 km/h 33% 0.0 mm 0 W/m2
20:29 6.2 °C -9.3 °C 1019.6 hPa East 3.2 km/h 3.2 km/h 32% 0.0 mm 0 W/m2
20:34 6.1 °C -9 °C 1019.6 hPa East 3.2 km/h 4.8 km/h 33% 0.0 mm 0 W/m2
20:39 5.9 °C -8.8 °C 1019.6 hPa SE 4.7 km/h 4.8 km/h 34% 0.0 mm 0 W/m2
20:44 5.8 °C -8.9 °C 1019.6 hPa East 3.2 km/h 8 km/h 34% 0.0 mm 0 W/m2
20:49 5.8 °C -8.9 °C 1019.6 hPa East 1.4 km/h 9.7 km/h 34% 0.0 mm 0 W/m2
20:54 5.7 °C -9 °C 1019.6 hPa ESE 1.4 km/h 6.4 km/h 34% 0.0 mm 0 W/m2
20:59 5.6 °C -8.7 °C 1019.6 hPa SE 1.4 km/h 9.7 km/h 35% 0.0 mm 0 W/m2
21:04 5.6 °C -8.7 °C 1019.6 hPa ESE 11.3 km/h 11.3 km/h 35% 0.0 mm 0 W/m2
21:09 5.6 °C -8.7 °C 1019.6 hPa ESE 3.2 km/h 9.7 km/h 35% 0.0 mm 0 W/m2
21:14 5.5 °C -8.8 °C 1019.6 hPa ESE 3.2 km/h 9.7 km/h 35% 0.0 mm 0 W/m2
21:19 5.4 °C -8.8 °C 1019.6 hPa ENE 1.4 km/h 6.4 km/h 35% 0.0 mm 0 W/m2
21:24 5.4 °C -8.8 °C 1019.6 hPa ENE 6.4 km/h 11.3 km/h 35% 0.0 mm 0 W/m2
21:29 5.4 °C -8.5 °C 1019.6 hPa ESE 3.2 km/h 6.4 km/h 36% 0.0 mm 0 W/m2
21:34 5.3 °C -8.6 °C 1019.6 hPa ESE 3.2 km/h 11.3 km/h 36% 0.0 mm 0 W/m2
21:39 5.3 °C -8.6 °C 1019.6 hPa East 1.4 km/h 6.4 km/h 36% 0.0 mm 0 W/m2
21:44 5.2 °C -8.3 °C 1019.6 hPa SSE 3.2 km/h 9.7 km/h 37% 0.0 mm 0 W/m2
21:49 5.1 °C -8.4 °C 1019.6 hPa East 1.4 km/h 4.8 km/h 37% 0.0 mm 0 W/m2
21:54 5 °C -8.5 °C 1019.6 hPa SE 1.4 km/h 6.4 km/h 37% 0.0 mm 0 W/m2
21:59 5 °C -8.5 °C 1019.6 hPa SE 1.4 km/h 8 km/h 37% 0.0 mm 0 W/m2
22:04 5 °C -8.5 °C 1019.6 hPa ESE 4.7 km/h 12.9 km/h 37% 0.0 mm 0 W/m2
22:09 5.1 °C -8.4 °C 1019.6 hPa SE 4.7 km/h 8 km/h 37% 0.0 mm 0 W/m2
22:14 5.2 °C -8.7 °C 1019.6 hPa SE 4.7 km/h 12.9 km/h 36% 0.0 mm 0 W/m2
22:19 5.2 °C -8.7 °C 1019.6 hPa East 3.2 km/h 14.5 km/h 36% 0.0 mm 0 W/m2
22:24 5.2 °C -8.3 °C 1019.6 hPa ESE 4.7 km/h 11.3 km/h 37% 0.0 mm 0 W/m2
22:29 5.1 °C -8.4 °C 1019.6 hPa ESE 1.4 km/h 14.5 km/h 37% 0.0 mm 0 W/m2
22:34 4.9 °C -8.2 °C 1019.6 hPa ESE 3.2 km/h 6.4 km/h 38% 0.0 mm 0 W/m2
22:39 4.8 °C -8.3 °C 1019.6 hPa East 4.7 km/h 8 km/h 38% 0.0 mm 0 W/m2
22:44 4.8 °C -8.7 °C 1019.6 hPa East 1.4 km/h 6.4 km/h 37% 0.0 mm 0 W/m2
22:49 4.8 °C -8.3 °C 1019.3 hPa ESE 1.4 km/h 3.2 km/h 38% 0.0 mm 0 W/m2
22:54 4.8 °C -8.3 °C 1019.3 hPa ESE 4.7 km/h 6.4 km/h 38% 0.0 mm 0 W/m2
22:59 4.8 °C -8.3 °C 1019.3 hPa NE 4.7 km/h 11.3 km/h 38% 0.0 mm 0 W/m2
23:04 4.8 °C -8.3 °C 1019.3 hPa ENE 3.2 km/h 4.8 km/h 38% 0.0 mm 0 W/m2
23:09 4.8 °C -8.3 °C 1019.3 hPa East 3.2 km/h 9.7 km/h 38% 0.0 mm 0 W/m2
23:14 4.8 °C -8.3 °C 1019.3 hPa East 1.4 km/h 6.4 km/h 38% 0.0 mm 0 W/m2
23:19 4.9 °C -8.2 °C 1019.3 hPa East 6.4 km/h 14.5 km/h 38% 0.0 mm 0 W/m2
23:24 4.9 °C -8.6 °C 1019.3 hPa East 1.4 km/h 12.9 km/h 37% 0.0 mm 0 W/m2
23:29 5 °C -8.1 °C 1019.3 hPa ESE 14.5 km/h 14.5 km/h 38% 0.0 mm 0 W/m2
23:34 4.9 °C -8.2 °C 1019.3 hPa ESE 11.1 km/h 11.3 km/h 38% 0.0 mm 0 W/m2
23:39 4.8 °C -8.3 °C 1019.3 hPa ESE 6.4 km/h 12.9 km/h 38% 0.0 mm 0 W/m2
23:44 4.8 °C -8.3 °C 1019.0 hPa ESE 3.2 km/h 16.1 km/h 38% 0.0 mm 0 W/m2
23:49 4.8 °C -8 °C 1019.0 hPa East 3.2 km/h 6.4 km/h 39% 0.0 mm 0 W/m2
23:54 4.7 °C -8.1 °C 1019.0 hPa ESE 4.7 km/h 8 km/h 39% 0.0 mm 0 W/m2
23:59 4.7 °C -8.1 °C 1019.0 hPa ESE 3.2 km/h 16.1 km/h 39% 0.0 mm 0 W/m2
Juneau County Weather
Compliments of Weather Underground - 2 mb